Home > Products > Valid Products > TAF

000
FTUS44 KBRO 201500 AAB
TAFBRO
TAF AMD
KBRO 201533Z 2016/2112 14016KT P6SM BKN025 BKN030 OVC040
     FM201900 15016G24KT P6SM BKN035
     FM210100 13014KT P6SM SCT025 BKN100
     FM210600 15010KT P6SM OVC015=



000
FTUS44 KBRO 201500 AAB
TAFHRL
TAF AMD
KHRL 201533Z 2016/2112 12015KT P6SM BKN024 BKN029
     FM201900 15016G24KT P6SM BKN035
     FM210100 13014KT P6SM SCT025 BKN100
     FM210600 15010KT P6SM OVC015=



000
FTUS44 KBRO 201500 AAA
TAFHRL
TAF AMD
KHRL 201502Z 2015/2112 14015G22KT P6SM FEW020 OVC040
     FM201900 15016G24KT P6SM BKN035
     FM210100 13014KT P6SM SCT025 BKN100
     FM210600 15010KT P6SM OVC015=



000
FTUS44 KBRO 201500 AAA
TAFMFE
TAF AMD
KMFE 201502Z 2015/2112 12013G20KT P6SM OVC035
     FM201900 15016G24KT P6SM BKN035
     FM210100 13014KT P6SM SCT025 OVC100
     FM210600 13012KT P6SM OVC015=



000
FTUS44 KBRO 201500 AAA
TAFBRO
TAF AMD
KBRO 201501Z 2015/2112 14016G21KT P6SM SCT040
     FM201900 15016G24KT P6SM BKN035
     FM210100 13014KT P6SM SCT025 BKN100
     FM210600 15010KT P6SM OVC015=



000
FTUS44 KBRO 201400 AAA
TAFBRO
TAF AMD
KBRO 201441Z 2015/2112 12010KT P6SM BKN040
     FM201900 15016G24KT P6SM BKN035
     FM210100 13014KT P6SM SCT025 BKN100
     FM210600 15010KT P6SM OVC015=



000
FTUS44 KBRO 201200 CCA
TAFBRO
TAF COR
KBRO 201210Z 2012/2112 12007KT P6SM FEW018 OVC035
      TEMPO 2012/2015 BKN020
     FM201600 13016G20KT P6SM OVC025
     FM201900 15016G24KT P6SM BKN035
     FM210100 13014KT P6SM SCT025 BKN100
     FM210600 15010KT P6SM OVC015=



000
FTUS44 KBRO 201100 CCA
TAFHRL
TAF COR
KHRL 201157Z 2012/2112 12006KT P6SM FEW020 BKN030 OVC040
     FM201600 13016G20KT P6SM OVC025
     FM201900 15016G24KT P6SM BKN035
     FM210100 13014KT P6SM SCT025 BKN100
     FM210600 15010KT P6SM OVC015=



000
FTUS44 KBRO 201100 CCA
TAFMFE
TAF COR
KMFE 201144Z 2012/2112 12007KT P6SM OVC070
     FM201600 14014KT P6SM BKN035 OVC200
     FM201900 15016G24KT P6SM BKN035
     FM210100 13014KT P6SM SCT025 OVC100
     FM210600 13012KT P6SM OVC015=



000
FTUS44 KBRO 201100 RRA
TAFHRL
TAF
KHRL 201142Z 2012/2112 12005KT P6SM BKN020 OVC035
      TEMPO 2012/2015 BKN012
     FM201600 13016G20KT P6SM OVC025
     FM201900 15016G24KT P6SM BKN035
     FM210100 13014KT P6SM SCT025 BKN100
     FM210600 15010KT P6SM OVC015=



000
FTUS44 KBRO 201100 RRA
TAFBRO
TAF
KBRO 201142Z 2012/2112 12007KT P6SM BKN020 OVC035
      TEMPO 2012/2015 BKN012
     FM201600 13016G20KT P6SM OVC025
     FM201900 15016G24KT P6SM BKN035
     FM210100 13014KT P6SM SCT025 BKN100
     FM210600 15010KT P6SM OVC015=



000
FTUS44 KBRO 201100 RRA
TAFMFE
TAF
KMFE 201142Z 2012/2112 13008KT P6SM BKN020 OVC035
      TEMPO 2012/2015 BKN012
     FM201600 14014KT P6SM BKN025 OVC200
     FM201900 15016G24KT P6SM BKN035
     FM210100 13014KT P6SM SCT025 OVC100
     FM210600 13012KT P6SM OVC015=



000
FTUS44 KBRO 201000 AAA
TAFMFE
TAF AMD
KMFE 201035Z 2011/2106 11008KT P6SM SCT020 OVC250
      TEMPO 2011/2015 BKN012
     FM201600 14014KT P6SM BKN025 OVC200
     FM201900 15016G24KT P6SM BKN035
     FM210100 13014KT P6SM SCT025 OVC100=



000
FTUS44 KBRO 201000 AAA
TAFHRL
TAF AMD
KHRL 201011Z 2010/2106 12005KT P6SM FEW025 BKN250
      TEMPO 2010/2013 OVC025
     FM201600 13016G20KT P6SM OVC025
     FM201900 15016G24KT P6SM BKN035
     FM210100 13014KT P6SM SCT025 BKN100=



000
FTUS44 KBRO 201000 AAA
TAFBRO
TAF AMD
KBRO 201010Z 2010/2106 12007KT P6SM SCT035 BKN250
      TEMPO 2010/2013 OVC025
     FM201600 13016G20KT P6SM OVC025
     FM201900 15016G24KT P6SM BKN035
     FM210100 13014KT P6SM SCT025 BKN100=



000
FTUS44 KBRO 200500 RRA
TAFMFE
TAF
KMFE 200543Z 2006/2106 12010KT P6SM FEW035 OVC200
     FM200900 13008KT P6SM BKN012 OVC200
     FM201600 14014KT P6SM BKN025 OVC200
     FM201900 15016G24KT P6SM BKN035
     FM210100 13014KT P6SM SCT025 OVC100=



000
FTUS44 KBRO 200500 RRA
TAFHRL
TAF
KHRL 200543Z 2006/2106 13008KT P6SM FEW035 OVC200
     FM200800 13008KT P6SM BKN025
      TEMPO 2010/2013 OVC015
     FM201600 13016G20KT P6SM OVC025
     FM201900 15016G24KT P6SM BKN035
     FM210100 13014KT P6SM SCT025 BKN100=



000
FTUS44 KBRO 200500 RRA
TAFBRO
TAF
KBRO 200543Z 2006/2106 13009KT P6SM FEW035 OVC200
     FM200800 13008KT P6SM BKN025
      TEMPO 2010/2013 OVC015
     FM201600 13016G20KT P6SM OVC025
     FM201900 15016G24KT P6SM BKN035
     FM210100 13014KT P6SM SCT025 BKN100=



000
FTUS44 KBRO 200200 AAA
TAFBRO
TAF AMD
KBRO 200242Z 2003/2024 12008KT P6SM FEW035 OVC200
     FM200700 13008KT P6SM BKN025
      TEMPO 2010/2013 OVC015
     FM201600 13016G20KT P6SM OVC025
     FM201900 15016G24KT P6SM BKN035=



000
FTUS44 KBRO 200200 AAA
TAFHRL
TAF AMD
KHRL 200242Z 2003/2024 11011KT P6SM FEW035 OVC045
     FM200700 13008KT P6SM BKN025
      TEMPO 2010/2013 OVC015
     FM201600 13016G20KT P6SM OVC025
     FM201900 15016G24KT P6SM BKN035=



000
FTUS44 KBRO 192300
TAFMFE
TAF
KMFE 192325Z 2000/2024 12011KT P6SM OVC045
     FM200500 13009KT P6SM BKN025 OVC200
     FM200900 13008KT P6SM BKN012 OVC200
     FM201600 14014KT P6SM BKN025 OVC200
     FM201900 15016G24KT P6SM BKN035=



000
FTUS44 KBRO 192300
TAFHRL
TAF
KHRL 192325Z 2000/2024 11011KT P6SM FEW035 OVC045
     FM200500 13008KT P6SM OVC025
     FM201000 14008KT P6SM OVC015
     FM201600 14015KT P6SM OVC025
     FM201900 15017G24KT P6SM BKN035=



000
FTUS44 KBRO 192300
TAFBRO
TAF
KBRO 192325Z 2000/2024 13011KT P6SM OVC035
     FM200500 13008KT P6SM OVC025
     FM201000 13008KT P6SM OVC015
     FM201600 13016G20KT P6SM OVC025
     FM201900 15016G24KT P6SM BKN035=



000
FTUS44 KBRO 191700
TAFBRO
TAF
KBRO 191724Z 1918/2018 13012KT P6SM BKN025 OVC200
     FM192000 13014KT P6SM BKN035 OVC200
     FM200200 13008KT P6SM BKN025 OVC200
     FM200700 13008KT P6SM BKN015 OVC200
     FM201600 13014G20KT P6SM BKN025 OVC200=



000
FTUS44 KBRO 191700
TAFHRL
TAF
KHRL 191724Z 1918/2018 13011KT P6SM BKN025 OVC200
     FM192000 13014KT P6SM BKN035 OVC200
     FM200200 13008KT P6SM BKN025 OVC200
     FM200700 14008KT P6SM BKN015 OVC200
     FM201600 14014G20KT P6SM BKN025 OVC200=



000
FTUS44 KBRO 191700
TAFMFE
TAF
KMFE 191724Z 1918/2018 13011KT P6SM BKN025 OVC070
     FM192000 14012KT P6SM BKN035 OVC070
     FM200400 13009KT P6SM BKN025 OVC200
     FM200800 13008KT P6SM BKN012 OVC200
     FM201600 14014G20KT P6SM BKN025 OVC200=



000
FTUS44 KBRO 191100
TAFMFE
TAF
KMFE 191120Z 1912/2012 13003KT P6SM OVC070
     FM191600 14012G18KT P6SM BKN040 OVC200
     FM192000 14014G20KT P6SM SCT050 OVC200
     FM200600 12012KT P6SM BKN020 OVC200=



000
FTUS44 KBRO 191100
TAFBRO
TAF
KBRO 191120Z 1912/2012 00000KT P6SM SCT250
     FM191600 12012G17KT P6SM BKN035 OVC200
     FM192100 14014G20KT P6SM SCT040 OVC200
     FM200200 13008KT P6SM BKN020 OVC200=



000
FTUS44 KBRO 191100
TAFHRL
TAF
KHRL 191120Z 1912/2012 00000KT P6SM SCT250
     FM191600 12012G18KT P6SM BKN035 OVC200
     FM192100 14014G20KT P6SM SCT040 OVC200
     FM200200 14008KT P6SM BKN020 OVC200=



000
FTUS44 KBRO 190500
TAFBRO
TAF
KBRO 190520Z 1906/2006 13003KT P6SM BKN250
     FM190900 13003KT P6SM BKN025
     FM191200 10004KT P6SM OVC015
     FM191600 12012G17KT P6SM BKN035 OVC200
     FM192100 14014G20KT P6SM SCT040 OVC200
     FM200200 13008KT P6SM BKN020 OVC200=



000
FTUS44 KBRO 190500
TAFHRL
TAF
KHRL 190520Z 1906/2006 14003KT P6SM BKN250
     FM190900 14003KT P6SM BKN025
     FM191200 10004KT P6SM OVC015
     FM191600 12012G18KT P6SM BKN035 OVC200
     FM192100 14014G20KT P6SM SCT040 OVC200
     FM200200 14008KT P6SM BKN020 OVC200=



000
FTUS44 KBRO 190500
TAFMFE
TAF
KMFE 190520Z 1906/2006 14004KT P6SM BKN250
     FM190900 14004KT P6SM BKN015
     FM191600 14012G18KT P6SM BKN040 OVC200
     FM192000 14014G20KT P6SM SCT050 OVC200=



000
FTUS44 KBRO 182300
TAFHRL
TAF
KHRL 182325Z 1900/1924 07010KT P6SM SCT040 BKN250
     FM190600 08005KT P6SM BKN025
     FM191200 10004KT P6SM OVC015
     FM191600 12012G18KT P6SM BKN035 OVC200
     FM192100 14014G20KT P6SM SCT040 OVC200=



000
FTUS44 KBRO 182300
TAFBRO
TAF
KBRO 182325Z 1900/1924 06010KT P6SM FEW030 BKN250
     FM190600 08005KT P6SM BKN025
     FM191200 10004KT P6SM OVC015
     FM191600 12012G17KT P6SM BKN035 OVC200
     FM192100 14014G20KT P6SM SCT040 OVC200=



000
FTUS44 KBRO 182300
TAFMFE
TAF
KMFE 182325Z 1900/1924 07007KT P6SM SCT025 BKN250
     FM190600 10006KT P6SM BKN015
     FM191600 14012G18KT P6SM BKN040 OVC200
     FM192000 14014G20KT P6SM SCT050 OVC200=



000
FTUS44 KBRO 181700
TAFBRO
TAF
KBRO 181721Z 1818/1918 04012KT P6SM SCT025 BKN035
      TEMPO 1818/1820 -RA BKN025
     FM190000 07008KT P6SM BKN040
     FM191600 10012KT P6SM SCT025=



000
FTUS44 KBRO 181700
TAFMFE
TAF
KMFE 181721Z 1818/1918 04012KT P6SM BKN025
     FM182200 07011KT P6SM SCT025
     FM190800 10006KT P6SM BKN015
     FM191400 10006KT P6SM SCT020=



000
FTUS44 KBRO 181700
TAFHRL
TAF
KHRL 181721Z 1818/1918 04012KT P6SM BKN025
      TEMPO 1818/1820 -RA BKN018
     FM190000 07008KT P6SM BKN040
     FM191600 10012KT P6SM SCT025=



000
FTUS44 KBRO 181400 AAB
TAFMFE
TAF AMD
KMFE 181426Z 1814/1912 03005KT P6SM SCT007 OVC015
      TEMPO 1814/1816 BKN007
     FM181600 05010KT P6SM BKN012
     FM181900 07012KT P6SM BKN020
     FM182200 11005KT P6SM SCT025
     FM190700 10006KT P6SM BKN015=



000
FTUS44 KBRO 181400 AAB
TAFBRO
TAF AMD
KBRO 181422Z 1814/1912 01005KT P6SM BKN011
     FM181800 06012KT P6SM BKN020
     FM182200 09005KT P6SM SCT025
     FM190200 07003KT P6SM BKN035=



000
FTUS44 KBRO 181400 AAB
TAFHRL
TAF AMD
KHRL 181420Z 1814/1912 36005KT P6SM SCT007 BKN011
      TEMPO 1814/1816 BKN007
     FM181600 05010KT P6SM BKN012
     FM181800 07012KT P6SM BKN020
     FM182200 10007KT P6SM SCT025=



000
FTUS44 KBRO 181400 AAA
TAFBRO
TAF AMD
KBRO 181409Z 1814/1912 01005KT P6SM BKN025 OVC080
     FM181700 06012KT P6SM BKN060
     FM190200 09005KT P6SM SCT050
     FM190600 07003KT P6SM BKN030=



000
FTUS44 KBRO 181300 AAA
TAFMFE
TAF AMD
KMFE 181330Z 1814/1912 03005KT P6SM SCT007 OVC015
      TEMPO 1814/1815 BKN007
     FM181500 05010KT P6SM SCT015 BKN080
     FM181700 07012KT P6SM SCT060
     FM190600 11005KT P6SM BKN030=



000
FTUS44 KBRO 181200 AAA
TAFHRL
TAF AMD
KHRL 181239Z 1813/1912 36005KT P6SM SCT007 BKN025
      TEMPO 1813/1815 BKN007
     FM181500 05010KT P6SM SCT025 BKN080
     FM181700 07012KT P6SM SCT060
     FM190200 10007KT P6SM SCT050
     FM190600 08003KT P6SM BKN030=



000
FTUS44 KBRO 181100
TAFMFE
TAF
KMFE 181126Z 1812/1912 03005KT P6SM OVC015
     FM181400 05010KT P6SM BKN080
     FM181700 07012KT P6SM SCT060
     FM190600 11005KT P6SM BKN030=



000
FTUS44 KBRO 181100
TAFBRO
TAF
KBRO 181126Z 1812/1912 01005KT P6SM BKN017 OVC080
     FM181400 05010KT P6SM BKN080
     FM181700 06012KT P6SM SCT060
     FM190200 09005KT P6SM SCT050
     FM190600 07003KT P6SM BKN030=



000
FTUS44 KBRO 181100
TAFHRL
TAF
KHRL 181126Z 1812/1912 36005KT P6SM SCT017 OVC080
     FM181400 05010KT P6SM BKN080
     FM181700 07012KT P6SM SCT060
     FM190200 10007KT P6SM SCT050
     FM190600 08003KT P6SM BKN030=



000
FTUS44 KBRO 180500
TAFHRL
TAF
KHRL 180528Z 1806/1906 06005KT P6SM OVC012
     FM181400 05012KT P6SM OVC040
     FM190200 10005KT P6SM OVC030=



000
FTUS44 KBRO 180500
TAFBRO
TAF
KBRO 180528Z 1806/1906 04005KT P6SM OVC010
     FM181400 04012KT P6SM OVC040
     FM190200 07005KT P6SM OVC030=



000
FTUS44 KBRO 180500
TAFMFE
TAF
KMFE 180528Z 1806/1906 05008KT P6SM OVC011
     FM181400 06012KT P6SM OVC040
     FM190500 11005KT P6SM OVC030=



000
FTUS44 KBRO 180000 AAA
TAFMFE
TAF AMD
KMFE 180022Z 1800/1824 04010KT P6SM -RA BKN017
     FM180500 07007KT P6SM OVC006
     FM181600 08011KT P6SM BKN025
     FM182100 07010KT P6SM OVC050=



000
FTUS44 KBRO 180000 AAA
TAFBRO
TAF AMD
KBRO 180022Z 1800/1824 05011KT P6SM -RA BKN008 OVC020
     FM180600 07006KT P6SM OVC004
     FM181500 06012KT P6SM BKN025=



000
FTUS44 KBRO 180000 AAA
TAFHRL
TAF AMD
KHRL 180022Z 1800/1824 06010KT P6SM BKN008
     FM180500 08007KT P6SM OVC004
     FM181500 07011KT P6SM BKN025=



000
FTUS44 KBRO 172300
TAFHRL
TAF
KHRL 172321Z 1800/1824 06010KT P6SM BKN012
     FM180300 08007KT P6SM OVC008
     FM181500 07011KT P6SM BKN025=



000
FTUS44 KBRO 172300
TAFBRO
TAF
KBRO 172321Z 1800/1824 05011KT P6SM -RA BKN015
     FM180200 07006KT P6SM OVC007
     FM181500 06012KT P6SM BKN025=



000
FTUS44 KBRO 172300
TAFMFE
TAF
KMFE 172321Z 1800/1824 04010KT P6SM -RA BKN022
     FM180500 07007KT P6SM OVC009
     FM181600 08011KT P6SM BKN025
     FM182100 07010KT P6SM OVC050=



000
FTUS44 KBRO 172100 AAA
TAFBRO
TAF AMD
KBRO 172103Z 1721/1818 05011KT P6SM BKN022
     FM180000 08009KT P6SM OVC019
     FM180200 07006KT P6SM OVC009
     FM180500 06004KT 6SM BR OVC004=



000
FTUS44 KBRO 171800 AAB
TAFHRL
TAF AMD
KHRL 171838Z 1719/1818 06010KT P6SM FEW017 OVC035
     FM180000 08011KT P6SM OVC019
     FM180300 08007KT P6SM OVC009
     FM180600 05005KT P6SM OVC009=



000
FTUS44 KBRO 171800 AAA
TAFBRO
TAF AMD
KBRO 171837Z 1719/1818 14006KT P6SM SCT023 OVC035
     FM180000 08009KT P6SM OVC019
     FM180200 07006KT P6SM OVC009
     FM180500 06004KT 6SM BR OVC004=



000
FTUS44 KBRO 171800 AAA
TAFHRL
TAF AMD
KHRL 171837Z 1719/1818 06010KT P6SM FEW017 OVC030
     FM180000 08011KT P6SM OVC019
     FM180300 08007KT P6SM OVC009
     FM180600 05005KT P6SM OVC009=



000
FTUS44 KBRO 171700
TAFMFE
TAF
KMFE 171720Z 1718/1818 14005KT P6SM BKN022 OVC029
     FM180400 07007KT P6SM OVC009
     FM180800 03005KT P6SM OVC009=



000
FTUS44 KBRO 171700
TAFHRL
TAF
KHRL 171720Z 1718/1818 09008KT P6SM SCT015 BKN024 OVC050
     FM180000 08011KT P6SM OVC019
     FM180300 08007KT P6SM OVC009
     FM180600 05005KT P6SM OVC009=



000
FTUS44 KBRO 171700
TAFBRO
TAF
KBRO 171720Z 1718/1818 16008KT P6SM BKN021 BKN027 BKN045
     FM180000 08009KT P6SM OVC019
     FM180200 07006KT P6SM OVC009
     FM180500 06004KT 6SM BR OVC004=



000
FTUS44 KBRO 171700 AAB
TAFHRL
TAF AMD
KHRL 171715Z 1717/1812 09008KT P6SM SCT015 BKN024 OVC050
     FM180000 09010KT P6SM BKN030
     FM180600 05003KT P6SM BKN030=



000
FTUS44 KBRO 171700 AAG
TAFBRO
TAF AMD
KBRO 171715Z 1717/1812 16008KT P6SM BKN021 BKN027 BKN045
     FM180000 09008KT P6SM BKN030
     FM180600 04003KT P6SM BKN030=



000
FTUS44 KBRO 171600 AAF
TAFBRO
TAF AMD
KBRO 171645Z 1717/1812 14007KT P6SM FEW016 BKN035 OVC050
     FM180000 09008KT P6SM BKN030
     FM180600 04003KT P6SM BKN030=



000
FTUS44 KBRO 171600 AAB
TAFMFE
TAF AMD
KMFE 171645Z 1717/1812 12006KT P6SM BKN022 OVC030
     FM180000 09010KT P6SM BKN030
     FM180800 04003KT P6SM BKN030=



    US Dept of Commerce
    National Oceanic and Atmospheric Administration
    National Weather Service
    1325 East West Highway
    Silver Spring, MD 20910
    Page Author: NWS Internet Services Team
Disclaimer
Information Quality
Credits
Glossary
Privacy Policy
Freedom of Information Act (FOIA)
About Us
Career Opportunities